Startpagina
METAR-TAF:

METAR-TAF

Vliegvelden :

Julius Nyerere International Airport

Dar es Salaam, Tanzania

breedte: 06-52S, lengte: 039-12E, hoogte: 55 m

Actueel weer

Dit bericht is 1 uur en het 18 minuten geleden gemaakt, om 00:00 UTC
Wind 8 kt uit het noorden
Temperatuur 28°C
Vochtigheid 84%
Druk 1009 hPa
Zicht 10 km of meer
Gebroken wolken op 1000 ft

METAR: HTDA 250000Z 35008KT 9999 BKN010 28/25 Q1009 NOSIG

Tijdstip: 04:18 (01:18 UTC)

Verwachting

Dit bericht is 8 uur en het 18 minuten geleden gemaakt, om 17:00 UTC
Verwachting geldig van 24 om 18 UTC tot 25 om 24 UTC
Wind 10 kt uit het noordnoordoosten
Zicht 10 km of meer
Verspreide wolken op 1500 ft
Tijdelijke
van 25 om 04 UTC tot 25 om 08 UTC
Gebroken wolken op 1800 ft
Weinig wolken op 1900 ft, Cumulonimbus.
regenbuien

TAF: HTDA 241700Z 2418/2524 03010KT 9999 SCT015 TEMPO 2504/2508 SHRA BKN018 FEW019CB

Waarnemingen en weersverwachtingen van meer dan 4000 vliegvelden (METAR en TAF).

De beschikbare stations zijn de gele en rode punten op de kaart.

Ga met uw muis naar het station om de naam te zien.

Klik dan om waarnemingen en weersverwachtingen te zien.

kaart wijzigen: klik op de groene knoppen met een zwart kruis om in te zoomen, op de groene knop met een streepje om uit te zoomen of op de groene pijlen voor aangrenzende kaarten.


METAR-TAF: